Metar z połowy godziny Komunikat METAR ze strony awiacja.imgw.pl Metar Mil EPDE METAR EPDE 261130Z 27010KT 9999 BKN017 OVC024 00/M02 Q1005 RMK 003 083 8/6=